sensor_id;sensor_type;location;lat;lon;timestamp;pressure;altitude;pressure_sealevel;temperature;humidity
50057;BME280;36875;49.468;11.200;2023-04-19T00:02:16;98567.06;;;21.24;41.33
50057;BME280;36875;49.468;11.200;2023-04-19T00:04:42;98568.19;;;21.23;41.24
50057;BME280;36875;49.468;11.200;2023-04-19T00:07:09;98573.66;;;21.23;41.46
50057;BME280;36875;49.468;11.200;2023-04-19T00:09:35;98566.88;;;21.20;41.38
50057;BME280;36875;49.468;11.200;2023-04-19T00:12:00;98561.41;;;21.20;41.43
50057;BME280;36875;49.468;11.200;2023-04-19T00:14:26;98565.22;;;21.19;41.14
50057;BME280;36875;49.468;11.200;2023-04-19T00:16:53;98558.16;;;21.18;41.21
50057;BME280;36875;49.468;11.200;2023-04-19T00:19:19;98557.34;;;21.17;41.13
50057;BME280;36875;49.468;11.200;2023-04-19T00:21:46;98553.91;;;21.12;41.33
50057;BME280;36875;49.468;11.200;2023-04-19T00:24:12;98554.91;;;21.16;41.15
50057;BME280;36875;49.468;11.200;2023-04-19T00:26:37;98554.06;;;21.15;41.12
50057;BME280;36875;49.468;11.200;2023-04-19T00:29:03;98554.72;;;21.12;41.18
50057;BME280;36875;49.468;11.200;2023-04-19T00:31:28;98558.25;;;21.13;41.31
50057;BME280;36875;49.468;11.200;2023-04-19T00:33:55;98555.81;;;21.11;41.12
50057;BME280;36875;49.468;11.200;2023-04-19T00:36:22;98549.81;;;21.09;41.15
50057;BME280;36875;49.468;11.200;2023-04-19T00:38:47;98544.94;;;21.06;41.04
50057;BME280;36875;49.468;11.200;2023-04-19T00:41:13;98555.59;;;21.08;41.23
50057;BME280;36875;49.468;11.200;2023-04-19T00:43:38;98548.53;;;21.07;41.15
50057;BME280;36875;49.468;11.200;2023-04-19T00:46:04;98549.63;;;21.06;41.23
50057;BME280;36875;49.468;11.200;2023-04-19T00:48:30;98545.28;;;21.05;41.16
50057;BME280;36875;49.468;11.200;2023-04-19T00:50:57;98543.66;;;21.04;41.18
50057;BME280;36875;49.468;11.200;2023-04-19T00:53:23;98540.91;;;21.04;40.97
50057;BME280;36875;49.468;11.200;2023-04-19T00:55:49;98538.47;;;21.02;41.16
50057;BME280;36875;49.468;11.200;2023-04-19T00:58:17;98534.44;;;20.99;41.13
50057;BME280;36875;49.468;11.200;2023-04-19T01:00:43;98536.03;;;21.01;41.00
50057;BME280;36875;49.468;11.200;2023-04-19T01:03:08;98539.91;;;20.99;40.96
50057;BME280;36875;49.468;11.200;2023-04-19T01:05:34;98528.16;;;20.99;41.04
50057;BME280;36875;49.468;11.200;2023-04-19T01:08:01;98536.34;;;20.99;40.89
50057;BME280;36875;49.468;11.200;2023-04-19T01:10:27;98531.19;;;20.97;41.21
50057;BME280;36875;49.468;11.200;2023-04-19T01:12:52;98530.34;;;20.97;40.93
50057;BME280;36875;49.468;11.200;2023-04-19T01:15:18;98524.06;;;20.96;41.04
50057;BME280;36875;49.468;11.200;2023-04-19T01:17:43;98522.47;;;20.95;40.90
50057;BME280;36875;49.468;11.200;2023-04-19T01:20:09;98526.31;;;20.94;41.14
50057;BME280;36875;49.468;11.200;2023-04-19T01:22:37;98523.56;;;20.94;41.03
50057;BME280;36875;49.468;11.200;2023-04-19T01:25:02;98521.94;;;20.93;40.93
50057;BME280;36875;49.468;11.200;2023-04-19T01:27:29;98520.31;;;20.92;40.90
50057;BME280;36875;49.468;11.200;2023-04-19T01:29:54;98515.97;;;20.91;41.15
50057;BME280;36875;49.468;11.200;2023-04-19T01:32:20;98508.59;;;20.92;40.86
50057;BME280;36875;49.468;11.200;2023-04-19T01:34:45;98507.25;;;20.89;40.81
50057;BME280;36875;49.468;11.200;2023-04-19T01:37:11;98508.38;;;20.88;40.95
50057;BME280;36875;49.468;11.200;2023-04-19T01:39:38;98508.38;;;20.88;41.12
50057;BME280;36875;49.468;11.200;2023-04-19T01:42:03;98495.78;;;20.87;40.74
50057;BME280;36875;49.468;11.200;2023-04-19T01:44:29;98491.47;;;20.86;40.98
50057;BME280;36875;49.468;11.200;2023-04-19T01:46:55;98488.81;;;20.81;40.82
50057;BME280;36875;49.468;11.200;2023-04-19T01:49:20;98495.28;;;20.85;41.01
50057;BME280;36875;49.468;11.200;2023-04-19T01:51:46;98501.88;;;20.84;40.89
50057;BME280;36875;49.468;11.200;2023-04-19T01:54:11;98491.25;;;20.83;41.00
50057;BME280;36875;49.468;11.200;2023-04-19T01:56:38;98498.63;;;20.82;40.67
50057;BME280;36875;49.468;11.200;2023-04-19T01:59:04;98491.53;;;20.81;40.73
50057;BME280;36875;49.468;11.200;2023-04-19T02:01:29;98491.84;;;20.79;40.95
50057;BME280;36875;49.468;11.200;2023-04-19T02:03:55;98492.66;;;20.80;40.89
50057;BME280;36875;49.468;11.200;2023-04-19T02:06:20;98485.56;;;20.79;40.97
50057;BME280;36875;49.468;11.200;2023-04-19T02:08:46;98489.41;;;20.78;40.86
50057;BME280;36875;49.468;11.200;2023-04-19T02:11:12;98488.59;;;20.77;40.82
50057;BME280;36875;49.468;11.200;2023-04-19T02:13:40;98486.16;;;20.76;40.77
50057;BME280;36875;49.468;11.200;2023-04-19T02:16:06;98485.34;;;20.75;40.73
50057;BME280;36875;49.468;11.200;2023-04-19T02:18:33;98483.72;;;20.74;40.74
50057;BME280;36875;49.468;11.200;2023-04-19T02:21:03;98469.94;;;20.66;40.92
50057;BME280;36875;49.468;11.200;2023-04-19T02:23:31;98481.28;;;20.73;40.56
50057;BME280;36875;49.468;11.200;2023-04-19T02:25:57;98479.69;;;20.72;40.59
50057;BME280;36875;49.468;11.200;2023-04-19T02:28:23;98469.84;;;20.71;40.60
50057;BME280;36875;49.468;11.200;2023-04-19T02:30:50;98475.31;;;20.71;40.88
50057;BME280;36875;49.468;11.200;2023-04-19T02:33:15;98466.59;;;20.69;40.74
50057;BME280;36875;49.468;11.200;2023-04-19T02:35:41;98472.88;;;20.69;40.98
50057;BME280;36875;49.468;11.200;2023-04-19T02:38:06;98466.09;;;20.67;40.86
50057;BME280;36875;49.468;11.200;2023-04-19T02:40:32;98462.25;;;20.68;40.52
50057;BME280;36875;49.468;11.200;2023-04-19T02:42:57;98451.63;;;20.66;40.78
50057;BME280;36875;49.468;11.200;2023-04-19T02:45:23;98452.50;;;20.62;40.63
50057;BME280;36875;49.468;11.200;2023-04-19T02:47:50;98465.59;;;20.65;40.60
50057;BME280;36875;49.468;11.200;2023-04-19T02:50:18;98456.59;;;20.64;40.62
50057;BME280;36875;49.468;11.200;2023-04-19T02:52:44;98454.16;;;20.63;40.67
50057;BME280;36875;49.468;11.200;2023-04-19T02:55:10;98457.69;;;20.63;40.73
50057;BME280;36875;49.468;11.200;2023-04-19T02:57:35;98454.16;;;20.63;40.55
50057;BME280;36875;49.468;11.200;2023-04-19T03:00:00;98455.25;;;20.62;40.46
50057;BME280;36875;49.468;11.200;2023-04-19T03:02:26;98450.03;;;20.60;40.77
50057;BME280;36875;49.468;11.200;2023-04-19T03:04:53;98446.50;;;20.59;40.38
50057;BME280;36875;49.468;11.200;2023-04-19T03:07:19;98441.13;;;20.54;40.62
50057;BME280;36875;49.468;11.200;2023-04-19T03:09:45;98444.06;;;20.58;40.58
50057;BME280;36875;49.468;11.200;2023-04-19T03:12:13;98439.72;;;20.57;40.51
50057;BME280;36875;49.468;11.200;2023-04-19T03:14:39;98436.16;;;20.56;40.64
50057;BME280;36875;49.468;11.200;2023-04-19T03:17:04;98437.28;;;20.55;40.44
50057;BME280;36875;49.468;11.200;2023-04-19T03:19:30;98433.75;;;20.55;40.47
50057;BME280;36875;49.468;11.200;2023-04-19T03:21:56;98434.06;;;20.53;40.71
50057;BME280;36875;49.468;11.200;2023-04-19T03:24:26;98425.84;;;20.53;40.56
50057;BME280;36875;49.468;11.200;2023-04-19T03:26:53;98426.16;;;20.52;40.44
50057;BME280;36875;49.468;11.200;2023-04-19T03:29:18;98413.88;;;20.49;40.28
50057;BME280;36875;49.468;11.200;2023-04-19T03:31:44;98423.72;;;20.50;40.38
50057;BME280;36875;49.468;11.200;2023-04-19T03:34:09;98421.78;;;20.51;40.57
50057;BME280;36875;49.468;11.200;2023-04-19T03:36:34;98418.53;;;20.49;40.50
50057;BME280;36875;49.468;11.200;2023-04-19T03:39:02;98424.81;;;20.49;40.47
50057;BME280;36875;49.468;11.200;2023-04-19T03:41:28;98416.94;;;20.48;40.56
50057;BME280;36875;49.468;11.200;2023-04-19T03:43:53;98417.75;;;20.48;40.28
50057;BME280;36875;49.468;11.200;2023-04-19T03:46:19;98417.22;;;20.46;40.47
50057;BME280;36875;49.468;11.200;2023-04-19T03:48:46;98411.75;;;20.46;40.34
50057;BME280;36875;49.468;11.200;2023-04-19T03:51:12;98404.66;;;20.45;40.24
50057;BME280;36875;49.468;11.200;2023-04-19T03:53:38;98404.16;;;20.43;40.36
50057;BME280;36875;49.468;11.200;2023-04-19T03:56:06;98410.44;;;20.44;40.24
50057;BME280;36875;49.468;11.200;2023-04-19T03:58:31;98412.34;;;20.43;40.52
50057;BME280;36875;49.468;11.200;2023-04-19T04:00:57;98411.56;;;20.42;40.38
50057;BME280;36875;49.468;11.200;2023-04-19T04:03:23;98407.47;;;20.40;40.15
50057;BME280;36875;49.468;11.200;2023-04-19T04:05:48;98409.13;;;20.41;40.40
50057;BME280;36875;49.468;11.200;2023-04-19T04:08:14;98412.94;;;20.40;40.35
50057;BME280;36875;49.468;11.200;2023-04-19T04:10:39;98404.75;;;20.40;40.29
50057;BME280;36875;49.468;11.200;2023-04-19T04:13:06;98403.94;;;20.39;40.42
50057;BME280;36875;49.468;11.200;2023-04-19T04:15:32;98406.97;;;20.38;40.17
50057;BME280;36875;49.468;11.200;2023-04-19T04:17:57;98406.97;;;20.38;40.22
50057;BME280;36875;49.468;11.200;2023-04-19T04:20:23;98408.09;;;20.37;40.30
50057;BME280;36875;49.468;11.200;2023-04-19T04:22:48;98408.09;;;20.37;40.42
50057;BME280;36875;49.468;11.200;2023-04-19T04:25:14;98411.63;;;20.37;40.18
50057;BME280;36875;49.468;11.200;2023-04-19T04:27:40;98405.66;;;20.35;40.34
50057;BME280;36875;49.468;11.200;2023-04-19T04:30:09;98407.59;;;20.35;40.46
50057;BME280;36875;49.468;11.200;2023-04-19T04:32:35;98408.69;;;20.34;40.40
50057;BME280;36875;49.468;11.200;2023-04-19T04:35:00;98408.69;;;20.34;40.26
50057;BME280;36875;49.468;11.200;2023-04-19T04:37:26;98407.09;;;20.33;40.09
50057;BME280;36875;49.468;11.200;2023-04-19T04:39:52;98405.16;;;20.33;40.21
50057;BME280;36875;49.468;11.200;2023-04-19T04:42:17;98400.00;;;20.32;40.27
50057;BME280;36875;49.468;11.200;2023-04-19T04:44:45;98404.66;;;20.31;40.25
50057;BME280;36875;49.468;11.200;2023-04-19T04:47:13;98397.56;;;20.30;40.19
50057;BME280;36875;49.468;11.200;2023-04-19T04:49:38;98397.56;;;20.30;40.17
50057;BME280;36875;49.468;11.200;2023-04-19T04:52:04;98401.41;;;20.29;40.24
50057;BME280;36875;49.468;11.200;2023-04-19T04:54:30;98403.31;;;20.29;40.16
50057;BME280;36875;49.468;11.200;2023-04-19T04:56:58;98395.75;;;20.26;40.14
50057;BME280;36875;49.468;11.200;2023-04-19T04:59:23;98397.06;;;20.28;40.19
50057;BME280;36875;49.468;11.200;2023-04-19T05:01:48;98384.91;;;20.20;40.27
50057;BME280;36875;49.468;11.200;2023-04-19T05:04:18;98397.34;;;20.27;40.08
50057;BME280;36875;49.468;11.200;2023-04-19T05:06:44;98396.84;;;20.25;40.32
50057;BME280;36875;49.468;11.200;2023-04-19T05:09:09;98392.47;;;20.23;40.39
50057;BME280;36875;49.468;11.200;2023-04-19T05:11:35;98388.94;;;20.23;40.62
50057;BME280;36875;49.468;11.200;2023-04-19T05:14:01;98387.63;;;20.20;40.47
50057;BME280;36875;49.468;11.200;2023-04-19T05:16:27;98387.00;;;20.23;40.59
50057;BME280;36875;49.468;11.200;2023-04-19T05:18:52;98386.72;;;20.25;40.61
50057;BME280;36875;49.468;11.200;2023-04-19T05:21:19;98381.53;;;20.23;40.52
50057;BME280;36875;49.468;11.200;2023-04-19T05:23:45;98383.78;;;20.21;41.05
50057;BME280;36875;49.468;11.200;2023-04-19T05:26:10;98382.66;;;20.22;40.57
50057;BME280;36875;49.468;11.200;2023-04-19T05:28:40;98383.78;;;20.21;40.71
50057;BME280;36875;49.468;11.200;2023-04-19T05:31:07;98380.75;;;20.23;40.99
50057;BME280;36875;49.468;11.200;2023-04-19T05:33:32;98382.66;;;20.22;41.14
50057;BME280;36875;49.468;11.200;2023-04-19T05:35:58;98377.22;;;20.22;40.87
50057;BME280;36875;49.468;11.200;2023-04-19T05:38:25;98386.22;;;20.23;41.31
50057;BME280;36875;49.468;11.200;2023-04-19T05:40:50;98370.44;;;20.20;41.12
50057;BME280;36875;49.468;11.200;2023-04-19T05:43:16;98369.59;;;20.19;41.01
50057;BME280;36875;49.468;11.200;2023-04-19T05:45:41;98370.72;;;20.18;41.30
50057;BME280;36875;49.468;11.200;2023-04-19T05:48:07;98371.31;;;20.15;41.29
50057;BME280;36875;49.468;11.200;2023-04-19T05:50:33;98371.41;;;20.10;41.18
50057;BME280;36875;49.468;11.200;2023-04-19T05:52:59;98372.53;;;20.09;41.38
50057;BME280;36875;49.468;11.200;2023-04-19T05:55:26;98375.84;;;20.06;41.34
50057;BME280;36875;49.468;11.200;2023-04-19T05:57:51;98374.75;;;20.07;41.60
50057;BME280;36875;49.468;11.200;2023-04-19T06:00:17;98374.66;;;20.12;41.37
50057;BME280;36875;49.468;11.200;2023-04-19T06:02:43;98376.28;;;20.13;41.14
50057;BME280;36875;49.468;11.200;2023-04-19T06:05:08;98368.66;;;20.10;41.41
50057;BME280;36875;49.468;11.200;2023-04-19T06:07:34;98370.09;;;20.08;41.29
50057;BME280;36875;49.468;11.200;2023-04-19T06:09:59;98369.28;;;20.07;41.01
50057;BME280;36875;49.468;11.200;2023-04-19T06:12:27;98369.59;;;20.06;41.36
50057;BME280;36875;49.468;11.200;2023-04-19T06:14:53;98359.47;;;20.06;41.31
50057;BME280;36875;49.468;11.200;2023-04-19T06:17:18;98373.94;;;20.07;41.43
50057;BME280;36875;49.468;11.200;2023-04-19T06:19:48;98375.84;;;20.06;41.46
50057;BME280;36875;49.468;11.200;2023-04-19T06:22:14;98367.97;;;20.05;41.43
50057;BME280;36875;49.468;11.200;2023-04-19T06:24:39;98364.13;;;20.06;41.50
50057;BME280;36875;49.468;11.200;2023-04-19T06:27:05;98360.56;;;20.05;41.64
50057;BME280;36875;49.468;11.200;2023-04-19T06:29:32;98365.22;;;20.05;41.31
50057;BME280;36875;49.468;11.200;2023-04-19T06:31:57;98365.22;;;20.05;41.55
50057;BME280;36875;49.468;11.200;2023-04-19T06:34:23;98365.22;;;20.05;41.46
50057;BME280;36875;49.468;11.200;2023-04-19T06:36:48;98366.03;;;20.05;41.86
50057;BME280;36875;49.468;11.200;2023-04-19T06:39:14;98361.25;;;19.97;41.49
50057;BME280;36875;49.468;11.200;2023-04-19T06:41:39;98355.69;;;19.69;39.71
50057;BME280;36875;49.468;11.200;2023-04-19T06:44:05;98357.03;;;19.53;39.44
50057;BME280;36875;49.468;11.200;2023-04-19T06:46:32;98352.13;;;19.36;39.18
50057;BME280;36875;49.468;11.200;2023-04-19T06:48:57;98349.81;;;19.24;38.83
50057;BME280;36875;49.468;11.200;2023-04-19T06:51:22;98354.25;;;19.20;38.97
50057;BME280;36875;49.468;11.200;2023-04-19T06:53:49;98347.19;;;19.19;38.85
50057;BME280;36875;49.468;11.200;2023-04-19T06:56:15;98341.41;;;19.20;38.78
50057;BME280;36875;49.468;11.200;2023-04-19T06:58:40;98348.88;;;19.15;38.69
50057;BME280;36875;49.468;11.200;2023-04-19T07:01:06;98343.34;;;19.20;38.67
50057;BME280;36875;49.468;11.200;2023-04-19T07:03:33;98346.13;;;19.15;38.85
50057;BME280;36875;49.468;11.200;2023-04-19T07:05:58;98333.75;;;19.41;39.64
50057;BME280;36875;49.468;11.200;2023-04-19T07:08:25;98339.38;;;19.83;39.13
50057;BME280;36875;49.468;11.200;2023-04-19T07:10:50;98335.16;;;20.05;38.90
50057;BME280;36875;49.468;11.200;2023-04-19T07:13:17;98335.41;;;20.22;39.27
50057;BME280;36875;49.468;11.200;2023-04-19T07:15:42;98333.69;;;20.40;40.04
50057;BME280;36875;49.468;11.200;2023-04-19T07:18:08;98322.56;;;20.50;39.82
50057;BME280;36875;49.468;11.200;2023-04-19T07:20:36;98321.66;;;20.55;39.95
50057;BME280;36875;49.468;11.200;2023-04-19T07:23:02;98320.22;;;20.57;40.31
50057;BME280;36875;49.468;11.200;2023-04-19T07:25:27;98315.25;;;20.59;40.62
50057;BME280;36875;49.468;11.200;2023-04-19T07:27:53;98312.16;;;20.66;40.23
50057;BME280;36875;49.468;11.200;2023-04-19T07:30:19;98303.50;;;20.73;40.21
50057;BME280;36875;49.468;11.200;2023-04-19T07:32:44;98307.66;;;20.84;40.27
50057;BME280;36875;49.468;11.200;2023-04-19T07:35:10;98304.91;;;20.84;40.51
50057;BME280;36875;49.468;11.200;2023-04-19T07:37:37;98301.56;;;20.87;40.58
50057;BME280;36875;49.468;11.200;2023-04-19T07:40:04;98302.91;;;20.90;40.64
50057;BME280;36875;49.468;11.200;2023-04-19T07:42:30;98300.97;;;20.90;40.88
50057;BME280;36875;49.468;11.200;2023-04-19T07:44:55;98305.78;;;20.93;41.01
50057;BME280;36875;49.468;11.200;2023-04-19T07:47:21;98305.78;;;20.93;40.98
50057;BME280;36875;49.468;11.200;2023-04-19T07:49:50;98306.31;;;20.95;41.06
50057;BME280;36875;49.468;11.200;2023-04-19T07:52:16;98304.38;;;20.96;41.22
50057;BME280;36875;49.468;11.200;2023-04-19T07:54:44;98296.50;;;20.94;41.03
50057;BME280;36875;49.468;11.200;2023-04-19T07:57:09;98299.22;;;20.94;41.08
50057;BME280;36875;49.468;11.200;2023-04-19T07:59:35;98301.16;;;20.94;41.26
50057;BME280;36875;49.468;11.200;2023-04-19T08:02:00;98296.78;;;20.93;41.50
50057;BME280;36875;49.468;11.200;2023-04-19T08:04:26;98298.72;;;20.92;41.38
50057;BME280;36875;49.468;11.200;2023-04-19T08:06:51;98296.00;;;20.92;41.53
50057;BME280;36875;49.468;11.200;2023-04-19T08:09:17;98294.34;;;20.91;41.46
50057;BME280;36875;49.468;11.200;2023-04-19T08:11:44;98297.91;;;20.92;41.65
50057;BME280;36875;49.468;11.200;2023-04-19T08:14:10;98294.06;;;20.93;41.55
50057;BME280;36875;49.468;11.200;2023-04-19T08:16:35;98290.03;;;20.90;41.72
50057;BME280;36875;49.468;11.200;2023-04-19T08:19:01;98290.03;;;20.90;41.89
50057;BME280;36875;49.468;11.200;2023-04-19T08:21:26;98288.38;;;20.89;41.71
50057;BME280;36875;49.468;11.200;2023-04-19T08:23:52;98288.38;;;20.89;41.80
50057;BME280;36875;49.468;11.200;2023-04-19T08:26:17;98296.09;;;20.87;41.61
50057;BME280;36875;49.468;11.200;2023-04-19T08:28:44;98294.16;;;20.88;41.86
50057;BME280;36875;49.468;11.200;2023-04-19T08:31:10;98298.34;;;20.85;41.86
50057;BME280;36875;49.468;11.200;2023-04-19T08:33:35;98300.75;;;20.87;42.04
50057;BME280;36875;49.468;11.200;2023-04-19T08:36:01;98301.88;;;20.86;41.93
50057;BME280;36875;49.468;11.200;2023-04-19T08:38:26;98305.75;;;20.85;42.14
50057;BME280;36875;49.468;11.200;2023-04-19T08:40:53;98302.50;;;20.83;41.94
50057;BME280;36875;49.468;11.200;2023-04-19T08:43:24;98306.03;;;20.83;41.91
50057;BME280;36875;49.468;11.200;2023-04-19T08:45:51;98307.16;;;20.82;41.91
50057;BME280;36875;49.468;11.200;2023-04-19T08:48:17;98309.88;;;20.82;41.95
50057;BME280;36875;49.468;11.200;2023-04-19T08:50:44;98308.28;;;20.81;42.14
50057;BME280;36875;49.468;11.200;2023-04-19T08:53:13;98304.72;;;20.80;42.04
50057;BME280;36875;49.468;11.200;2023-04-19T08:55:41;98308.56;;;20.79;41.87
50057;BME280;36875;49.468;11.200;2023-04-19T08:58:07;98312.13;;;20.80;42.02
50057;BME280;36875;49.468;11.200;2023-04-19T09:00:36;98307.78;;;20.79;41.83
50057;BME280;36875;49.468;11.200;2023-04-19T09:03:05;98317.59;;;20.80;42.31
50057;BME280;36875;49.468;11.200;2023-04-19T09:05:31;98308.06;;;20.77;42.26
50057;BME280;36875;49.468;11.200;2023-04-19T09:08:19;98314.34;;;20.78;42.11
50057;BME280;36875;49.468;11.200;2023-04-19T09:10:51;98307.56;;;20.75;42.08
50057;BME280;36875;49.468;11.200;2023-04-19T09:13:18;98314.94;;;20.75;42.10
50057;BME280;36875;49.468;11.200;2023-04-19T09:15:43;98320.94;;;20.77;41.99
50057;BME280;36875;49.468;11.200;2023-04-19T09:18:10;98314.34;;;20.78;42.09
50057;BME280;36875;49.468;11.200;2023-04-19T09:20:36;98319.13;;;20.72;42.08
50057;BME280;36875;49.468;11.200;2023-04-19T09:23:03;98313.16;;;20.70;42.06
50057;BME280;36875;49.468;11.200;2023-04-19T09:25:30;98305.25;;;20.69;42.22
50057;BME280;36875;49.468;11.200;2023-04-19T09:28:07;98312.34;;;20.70;42.27
50057;BME280;36875;49.468;11.200;2023-04-19T09:30:33;98306.88;;;20.70;42.45
50057;BME280;36875;49.468;11.200;2023-04-19T09:32:58;98299.19;;;20.72;42.45
50057;BME280;36875;49.468;11.200;2023-04-19T09:35:38;98297.13;;;20.77;42.38
50057;BME280;36875;49.468;11.200;2023-04-19T09:38:04;98299.56;;;20.79;42.16
50057;BME280;36875;49.468;11.200;2023-04-19T09:40:29;98291.88;;;20.81;42.23
50057;BME280;36875;49.468;11.200;2023-04-19T09:42:55;98291.03;;;20.80;42.07
50057;BME280;36875;49.468;11.200;2023-04-19T09:45:21;98288.00;;;20.82;42.30
50057;BME280;36875;49.468;11.200;2023-04-19T09:47:59;98283.56;;;20.86;42.14
50057;BME280;36875;49.468;11.200;2023-04-19T09:50:25;98292.75;;;20.90;42.17
50057;BME280;36875;49.468;11.200;2023-04-19T09:52:52;98286.34;;;20.95;42.25
50057;BME280;36875;49.468;11.200;2023-04-19T09:55:18;98291.41;;;21.02;42.08
50057;BME280;36875;49.468;11.200;2023-04-19T09:57:44;98276.47;;;21.08;42.29
50057;BME280;36875;49.468;11.200;2023-04-19T10:00:11;98282.44;;;21.10;42.21
50057;BME280;36875;49.468;11.200;2023-04-19T10:02:39;98281.72;;;21.18;41.93
50057;BME280;36875;49.468;11.200;2023-04-19T10:05:07;98276.56;;;21.16;42.09
50057;BME280;36875;49.468;11.200;2023-04-19T10:07:33;98270.28;;;21.16;42.42
50057;BME280;36875;49.468;11.200;2023-04-19T10:10:01;98266.41;;;21.17;42.17
50057;BME280;36875;49.468;11.200;2023-04-19T10:12:29;98266.78;;;21.24;42.22
50057;BME280;36875;49.468;11.200;2023-04-19T10:14:56;98254.84;;;21.20;42.52
50057;BME280;36875;49.468;11.200;2023-04-19T10:17:25;98258.06;;;21.22;42.35
50057;BME280;36875;49.468;11.200;2023-04-19T10:20:00;98259.41;;;21.25;42.47
50057;BME280;36875;49.468;11.200;2023-04-19T10:22:31;98256.34;;;21.26;42.39
50057;BME280;36875;49.468;11.200;2023-04-19T10:25:08;98256.09;;;21.36;42.20
50057;BME280;36875;49.468;11.200;2023-04-19T10:27:35;98251.13;;;21.38;42.16
50057;BME280;36875;49.468;11.200;2023-04-19T10:30:02;98241.41;;;21.32;42.22
50057;BME280;36875;49.468;11.200;2023-04-19T10:32:37;98245.63;;;21.38;42.22
50057;BME280;36875;49.468;11.200;2023-04-19T10:35:07;98243.50;;;21.35;42.26
50057;BME280;36875;49.468;11.200;2023-04-19T10:37:32;98242.28;;;21.42;41.97
50057;BME280;36875;49.468;11.200;2023-04-19T10:39:58;98240.03;;;21.44;42.23
50057;BME280;36875;49.468;11.200;2023-04-19T10:45:32;98229.03;;;21.12;42.00
50057;BME280;36875;49.468;11.200;2023-04-19T10:47:58;98223.00;;;21.02;41.60
50057;BME280;36875;49.468;11.200;2023-04-19T10:50:24;98221.56;;;21.04;40.75
50057;BME280;36875;49.468;11.200;2023-04-19T10:52:49;98213.00;;;21.20;40.25
50057;BME280;36875;49.468;11.200;2023-04-19T10:55:17;98217.09;;;21.31;39.95
50057;BME280;36875;49.468;11.200;2023-04-19T10:58:04;98200.66;;;21.31;40.17
50057;BME280;36875;49.468;11.200;2023-04-19T11:00:31;98200.34;;;21.32;40.37
50057;BME280;36875;49.468;11.200;2023-04-19T11:02:58;98202.06;;;21.28;40.85
50057;BME280;36875;49.468;11.200;2023-04-19T11:05:23;98192.28;;;21.27;41.13
50057;BME280;36875;49.468;11.200;2023-04-19T11:07:49;98200.66;;;21.31;40.93
50057;BME280;36875;49.468;11.200;2023-04-19T11:10:27;98186.66;;;21.32;41.19
50057;BME280;36875;49.468;11.200;2023-04-19T11:12:53;98192.16;;;21.41;41.10
50057;BME280;36875;49.468;11.200;2023-04-19T11:15:22;98186.78;;;21.50;40.84
50057;BME280;36875;49.468;11.200;2023-04-19T11:17:49;98178.56;;;21.50;40.76
50057;BME280;36875;49.468;11.200;2023-04-19T11:20:14;98180.69;;;21.53;40.92
50057;BME280;36875;49.468;11.200;2023-04-19T11:22:41;98167.13;;;21.48;41.14
50057;BME280;36875;49.468;11.200;2023-04-19T11:25:08;98168.38;;;21.42;41.06
50057;BME280;36875;49.468;11.200;2023-04-19T11:27:35;98159.13;;;21.37;41.29
50057;BME280;36875;49.468;11.200;2023-04-19T11:30:03;98152.25;;;21.40;41.04
50057;BME280;36875;49.468;11.200;2023-04-19T11:32:30;98153.13;;;21.49;41.31
50057;BME280;36875;49.468;11.200;2023-04-19T11:34:55;98158.28;;;21.51;41.16
50057;BME280;36875;49.468;11.200;2023-04-19T11:37:21;98154.72;;;21.50;41.20
50057;BME280;36875;49.468;11.200;2023-04-19T11:39:47;98156.66;;;21.50;41.26
50057;BME280;36875;49.468;11.200;2023-04-19T11:42:18;98157.41;;;21.42;41.24
50057;BME280;36875;49.468;11.200;2023-04-19T11:44:48;98159.41;;;21.27;41.42
50057;BME280;36875;49.468;11.200;2023-04-19T11:47:13;98160.03;;;21.24;40.77
50057;BME280;36875;49.468;11.200;2023-04-19T11:49:40;98144.50;;;21.11;40.64
50057;BME280;36875;49.468;11.200;2023-04-19T11:52:06;98144.72;;;20.92;40.47
50057;BME280;36875;49.468;11.200;2023-04-19T11:54:32;98155.66;;;20.92;40.06
50057;BME280;36875;49.468;11.200;2023-04-19T11:56:59;98156.47;;;20.92;39.63
50057;BME280;36875;49.468;11.200;2023-04-19T11:59:24;98134.69;;;20.87;38.76
50057;BME280;36875;49.468;11.200;2023-04-19T12:01:50;98138.19;;;21.02;37.67
50057;BME280;36875;49.468;11.200;2023-04-19T12:04:15;98131.63;;;21.11;36.96
50057;BME280;36875;49.468;11.200;2023-04-19T12:06:42;98140.09;;;21.24;36.62
50057;BME280;36875;49.468;11.200;2023-04-19T12:09:07;98126.63;;;21.36;36.95
50057;BME280;36875;49.468;11.200;2023-04-19T12:11:42;98127.19;;;21.47;37.20
50057;BME280;36875;49.468;11.200;2023-04-19T12:14:09;98124.94;;;21.49;37.60
50057;BME280;36875;49.468;11.200;2023-04-19T12:16:34;98133.50;;;21.56;37.61
50057;BME280;36875;49.468;11.200;2023-04-19T12:19:09;98131.09;;;21.63;37.88
50057;BME280;36875;49.468;11.200;2023-04-19T12:21:36;98123.56;;;21.69;38.00
50057;BME280;36875;49.468;11.200;2023-04-19T12:24:03;98130.81;;;21.73;38.19
50057;BME280;36875;49.468;11.200;2023-04-19T12:26:29;98117.00;;;21.79;38.30
50057;BME280;36875;49.468;11.200;2023-04-19T12:28:55;98116.19;;;21.78;38.53
50057;BME280;36875;49.468;11.200;2023-04-19T12:31:21;98112.66;;;21.86;38.80
50057;BME280;36875;49.468;11.200;2023-04-19T12:33:47;98111.84;;;21.86;38.75
50057;BME280;36875;49.468;11.200;2023-04-19T12:36:13;98117.34;;;21.86;39.03
50057;BME280;36875;49.468;11.200;2023-04-19T12:38:39;98119.75;;;21.87;39.03
50057;BME280;36875;49.468;11.200;2023-04-19T12:41:05;98116.84;;;21.84;39.24
50057;BME280;36875;49.468;11.200;2023-04-19T12:43:31;98106.84;;;21.88;39.17
50057;BME280;36875;49.468;11.200;2023-04-19T12:45:57;98111.19;;;21.89;39.63
50057;BME280;36875;49.468;11.200;2023-04-19T12:48:23;98103.97;;;21.93;39.58
50057;BME280;36875;49.468;11.200;2023-04-19T12:53:13;98115.44;;;22.12;39.65